NWWW METAR and TAF weather

Enter ICAO airport designator
Station Type Date Time Source
NWWW METAR 2019/12/12 17:00 UTC NOAA

NWWW 121700Z AUTO VRB02KT CAVOK 19/16 Q1011 NOSIG


Station Type Date Time Source
NWWW Decoded METAR 2019/12/12 17:00 UTC NOAA

La Tontouta Nlle-Caledonie , New Caledonia (NWWW) 22-01S 166-13E 14M
Dec 12, 2019 - 12:00 PM EST / 2019.12.12 1700 UTC
Wind: Variable at 2 MPH (2 KT):0
Visibility: greater than 7 mile(s):0
Temperature: 66 F (19 C)
Dew Point: 60 F (16 C)
Relative Humidity: 82%
Pressure (altimeter): 29.85 in. Hg (1011 hPa)
ob: NWWW 121700Z AUTO VRB02KT CAVOK 19/16 Q1011 NOSIG
cycle: 17

Station Type Date Time Source
NWWW TAF 2019/12/12 12:39 UTC NOAA

TAF NWWW 121100Z 1212/1312 VRB02KT 9999 SCT040
BECMG 1221/1224 19012KT
BECMG 1307/1309 VRB02KT

Example: see airport list